createdAt,value
2023-05-02T00:01:15.183Z,10.30
2023-05-02T00:03:42.881Z,10.30
2023-05-02T00:06:11.343Z,10.30
2023-05-02T00:08:38.154Z,10.30
2023-05-02T00:11:05.437Z,10.30
2023-05-02T00:13:32.113Z,10.30
2023-05-02T00:15:58.772Z,10.20
2023-05-02T00:18:25.603Z,10.20
2023-05-02T00:20:52.251Z,10.10
2023-05-02T00:23:18.892Z,10.10
2023-05-02T00:25:46.520Z,10.00
2023-05-02T00:28:13.889Z,10.20
2023-05-02T00:30:47.037Z,10.20
2023-05-02T00:33:15.222Z,10.20
2023-05-02T00:35:42.131Z,10.20
2023-05-02T00:38:09.124Z,10.10
2023-05-02T00:40:46.367Z,10.10
2023-05-02T00:43:13.510Z,10.10
2023-05-02T00:45:41.892Z,10.10
2023-05-02T00:48:09.282Z,10.00
2023-05-02T00:50:41.177Z,10.00
2023-05-02T00:53:09.734Z,10.00
2023-05-02T00:55:36.961Z,10.00
2023-05-02T00:58:08.610Z,10.00
2023-05-02T01:00:41.591Z,10.00
2023-05-02T01:03:32.016Z,10.00
2023-05-02T01:06:16.619Z,10.00
2023-05-02T01:09:17.589Z,9.90
2023-05-02T01:12:14.442Z,9.90
2023-05-02T01:14:50.759Z,9.90
2023-05-02T01:17:19.777Z,9.80
2023-05-02T01:19:57.209Z,9.90
2023-05-02T01:22:26.966Z,9.80
2023-05-02T01:25:11.567Z,9.90
2023-05-02T01:28:01.337Z,9.90
2023-05-02T01:30:30.911Z,9.90
2023-05-02T01:32:59.315Z,9.90
2023-05-02T01:35:27.768Z,9.90
2023-05-02T01:37:57.564Z,9.90
2023-05-02T01:40:26.371Z,9.90
2023-05-02T01:42:54.363Z,9.90
2023-05-02T01:45:22.981Z,9.90
2023-05-02T01:47:51.292Z,9.90
2023-05-02T01:50:23.240Z,9.90
2023-05-02T01:52:52.891Z,9.80
2023-05-02T01:55:20.522Z,9.80
2023-05-02T01:57:48.631Z,9.80
2023-05-02T02:00:18.435Z,9.80
2023-05-02T02:02:47.563Z,9.80
2023-05-02T02:05:14.632Z,9.80
2023-05-02T02:07:41.594Z,9.80
2023-05-02T02:10:08.728Z,9.70
2023-05-02T02:12:54.762Z,9.70
2023-05-02T02:15:35.080Z,9.70
2023-05-02T02:18:09.774Z,9.70
2023-05-02T02:20:36.846Z,9.70
2023-05-02T02:23:07.348Z,9.70
2023-05-02T02:25:35.936Z,9.70
2023-05-02T02:28:02.696Z,9.60
2023-05-02T02:30:29.474Z,9.60
2023-05-02T02:32:56.252Z,9.60
2023-05-02T02:35:23.636Z,9.60
2023-05-02T02:38:07.798Z,9.50
2023-05-02T02:41:06.832Z,9.50
2023-05-02T02:43:40.870Z,9.50
2023-05-02T02:46:34.161Z,9.50
2023-05-02T02:49:18.796Z,9.50
2023-05-02T02:52:24.816Z,9.50
2023-05-02T02:55:06.292Z,9.50
2023-05-02T02:57:32.971Z,9.60
2023-05-02T03:00:24.864Z,9.60
2023-05-02T03:02:53.285Z,9.60
2023-05-02T03:05:22.168Z,9.60
2023-05-02T03:07:49.234Z,9.70
2023-05-02T03:10:16.438Z,9.80
2023-05-02T03:12:43.633Z,9.80
2023-05-02T03:15:30.593Z,9.80
2023-05-02T03:17:57.265Z,9.70
2023-05-02T03:20:23.971Z,9.80
2023-05-02T03:22:50.620Z,9.80
2023-05-02T03:25:17.260Z,9.80
2023-05-02T03:27:43.924Z,9.80
2023-05-02T03:30:10.813Z,9.80
2023-05-02T03:32:37.527Z,9.80
2023-05-02T03:35:04.473Z,9.70
2023-05-02T03:37:31.100Z,9.70
2023-05-02T03:39:58.071Z,9.70
2023-05-02T03:42:24.891Z,9.70
2023-05-02T03:44:54.473Z,9.70
2023-05-02T03:47:21.107Z,9.70
2023-05-02T03:49:47.787Z,9.70
2023-05-02T03:52:14.468Z,9.70
2023-05-02T03:54:41.673Z,9.70
2023-05-02T03:57:08.833Z,9.70
2023-05-02T03:59:35.530Z,9.80
2023-05-02T04:02:02.315Z,9.70
2023-05-02T04:04:29.038Z,9.70
2023-05-02T04:06:55.756Z,9.70
2023-05-02T04:09:25.351Z,9.70
2023-05-02T04:11:52.347Z,9.70
2023-05-02T04:14:19.125Z,9.70
2023-05-02T04:16:52.416Z,9.70
2023-05-02T04:19:19.480Z,9.70
2023-05-02T04:21:46.394Z,9.70
2023-05-02T04:24:13.846Z,9.60
2023-05-02T04:26:40.918Z,9.70
2023-05-02T04:29:07.805Z,9.70
2023-05-02T04:31:35.057Z,9.70
2023-05-02T04:34:01.917Z,9.80
2023-05-02T04:36:28.600Z,9.80
2023-05-02T04:38:55.536Z,9.70
2023-05-02T04:41:23.102Z,9.70
2023-05-02T04:43:49.823Z,9.80
2023-05-02T04:46:18.318Z,9.70
2023-05-02T04:48:45.078Z,9.70
2023-05-02T04:51:11.801Z,9.70
2023-05-02T04:53:38.687Z,9.80
2023-05-02T04:56:05.856Z,9.80
2023-05-02T04:58:32.840Z,9.90
2023-05-02T05:00:59.522Z,9.90
2023-05-02T05:03:26.393Z,10.00
2023-05-02T05:05:53.128Z,10.00
2023-05-02T05:08:19.757Z,10.10
2023-05-02T05:10:46.446Z,10.20
2023-05-02T05:13:13.882Z,10.20
2023-05-02T05:15:40.565Z,10.20
2023-05-02T05:18:07.348Z,10.10
2023-05-02T05:20:34.024Z,10.10
2023-05-02T05:23:00.711Z,10.20
2023-05-02T05:25:27.647Z,10.30
2023-05-02T05:27:55.873Z,10.30
2023-05-02T05:30:22.804Z,10.30
2023-05-02T05:32:49.491Z,10.30
2023-05-02T05:35:16.419Z,10.30
2023-05-02T05:37:43.909Z,10.30
2023-05-02T05:40:10.771Z,10.30
2023-05-02T05:42:37.484Z,10.30
2023-05-02T05:45:04.423Z,10.40
2023-05-02T05:47:31.195Z,10.40
2023-05-02T05:49:58.176Z,10.30
2023-05-02T05:52:25.226Z,10.30
2023-05-02T05:54:57.988Z,10.30
2023-05-02T05:57:24.908Z,10.20
2023-05-02T05:59:51.956Z,10.20
2023-05-02T06:02:19.806Z,10.10
2023-05-02T06:04:46.931Z,10.10
2023-05-02T06:07:13.769Z,10.10
2023-05-02T06:09:40.564Z,10.00
2023-05-02T06:12:07.401Z,10.00
2023-05-02T06:14:34.126Z,10.00
2023-05-02T06:17:00.860Z,10.00
2023-05-02T06:19:27.614Z,10.10
2023-05-02T06:21:54.270Z,10.20
2023-05-02T06:24:21.009Z,10.10
2023-05-02T06:26:47.675Z,10.20
2023-05-02T06:29:14.336Z,10.30
2023-05-02T06:31:41.042Z,10.30
2023-05-02T06:34:07.918Z,10.30
2023-05-02T06:36:34.573Z,10.40
2023-05-02T06:39:01.436Z,10.50
2023-05-02T06:41:28.099Z,10.70
2023-05-02T06:43:54.754Z,10.90
2023-05-02T06:46:21.565Z,11.00
2023-05-02T06:48:48.807Z,11.10
2023-05-02T06:51:15.591Z,11.20
2023-05-02T06:53:42.242Z,11.30
2023-05-02T06:56:08.904Z,11.30
2023-05-02T06:58:35.557Z,11.30
2023-05-02T07:01:02.297Z,11.40
2023-05-02T07:03:29.062Z,11.60
2023-05-02T07:05:55.775Z,11.60
2023-05-02T07:08:23.889Z,11.70
2023-05-02T07:10:50.877Z,11.70
2023-05-02T07:13:17.518Z,11.80
2023-05-02T07:15:44.207Z,11.80
2023-05-02T07:18:10.996Z,11.80
2023-05-02T07:20:38.911Z,12.00
2023-05-02T07:23:05.562Z,12.00
2023-05-02T07:25:32.315Z,12.10
2023-05-02T07:27:58.967Z,12.30
2023-05-02T07:30:25.774Z,12.30
2023-05-02T07:32:52.459Z,12.40
2023-05-02T07:35:19.269Z,12.50
2023-05-02T07:37:46.303Z,12.60
2023-05-02T07:40:13.135Z,12.70
2023-05-02T07:42:41.836Z,12.60
2023-05-02T07:45:09.192Z,12.50
2023-05-02T07:47:36.201Z,12.50
2023-05-02T07:50:06.397Z,12.70
2023-05-02T07:52:33.077Z,12.80
2023-05-02T07:54:59.729Z,12.90
2023-05-02T07:57:26.898Z,13.20
2023-05-02T07:59:53.730Z,13.60
2023-05-02T08:02:21.631Z,14.10
2023-05-02T08:04:49.203Z,14.60
2023-05-02T08:07:16.767Z,14.90
2023-05-02T08:09:43.480Z,14.90
2023-05-02T08:12:10.157Z,14.80
2023-05-02T08:14:36.862Z,14.80
2023-05-02T08:17:03.525Z,14.80
2023-05-02T08:19:30.252Z,14.70
2023-05-02T08:21:56.930Z,14.70
2023-05-02T08:24:23.746Z,14.70
2023-05-02T08:26:50.845Z,14.90
2023-05-02T08:29:17.598Z,15.10
2023-05-02T08:31:44.429Z,15.10
2023-05-02T08:34:11.243Z,14.90
2023-05-02T08:36:37.952Z,14.80
2023-05-02T08:39:04.733Z,14.90
2023-05-02T08:41:31.451Z,14.90
2023-05-02T08:43:59.989Z,14.90
2023-05-02T08:46:29.138Z,14.80
2023-05-02T08:48:59.043Z,14.90
2023-05-02T08:51:28.851Z,15.20
2023-05-02T08:53:57.263Z,15.70
2023-05-02T08:56:25.214Z,16.00
2023-05-02T08:58:52.117Z,16.30
2023-05-02T09:01:22.494Z,16.50
2023-05-02T09:03:49.696Z,16.70
2023-05-02T09:06:18.750Z,16.90
2023-05-02T09:08:49.199Z,17.00
2023-05-02T09:11:16.906Z,17.20
2023-05-02T09:13:51.744Z,17.50
2023-05-02T09:16:22.912Z,17.70
2023-05-02T09:18:57.507Z,18.00
2023-05-02T09:21:26.620Z,18.20
2023-05-02T09:23:55.985Z,17.90
2023-05-02T09:26:32.259Z,17.60
2023-05-02T09:29:01.258Z,17.40
2023-05-02T09:34:16.188Z,17.10
2023-05-02T09:36:51.238Z,17.30
2023-05-02T09:39:20.136Z,17.90
2023-05-02T09:41:48.301Z,18.60
2023-05-02T09:44:18.419Z,19.30
2023-05-02T09:46:47.681Z,19.40
2023-05-02T09:49:15.150Z,19.60
2023-05-02T09:51:43.926Z,19.90
2023-05-02T09:54:10.910Z,20.40
2023-05-02T09:56:57.267Z,20.60
2023-05-02T09:59:24.693Z,20.20
2023-05-02T10:01:59.661Z,19.90
2023-05-02T10:04:27.843Z,20.00
2023-05-02T10:06:55.484Z,20.30
2023-05-02T10:09:22.716Z,20.50
2023-05-02T10:11:56.414Z,20.60
2023-05-02T10:14:29.518Z,20.40
2023-05-02T10:17:09.206Z,20.00
2023-05-02T10:19:48.615Z,19.50
2023-05-02T10:22:19.198Z,19.20
2023-05-02T10:24:49.408Z,19.00
2023-05-02T10:27:16.346Z,18.80
2023-05-02T10:29:43.931Z,18.50
2023-05-02T10:32:11.261Z,18.50
2023-05-02T10:34:40.507Z,18.40
2023-05-02T10:37:07.458Z,18.30
2023-05-02T10:39:34.350Z,18.20
2023-05-02T10:42:03.070Z,18.40
2023-05-02T10:44:36.509Z,18.60
2023-05-02T10:47:22.491Z,18.70
2023-05-02T10:49:52.466Z,18.70
2023-05-02T10:52:41.447Z,18.60
2023-05-02T10:55:18.137Z,18.40
2023-05-02T10:58:00.195Z,18.20
2023-05-02T11:00:30.105Z,18.00
2023-05-02T11:02:57.153Z,18.00
2023-05-02T11:05:25.453Z,18.00
2023-05-02T11:08:19.426Z,18.20
2023-05-02T11:10:47.290Z,18.40
2023-05-02T11:13:14.149Z,18.40
2023-05-02T11:15:40.850Z,18.70
2023-05-02T11:18:12.816Z,18.80
2023-05-02T11:20:44.352Z,18.80
2023-05-02T11:23:17.076Z,18.80
2023-05-02T11:25:48.933Z,18.60
2023-05-02T11:28:37.415Z,18.50
2023-05-02T11:31:05.638Z,18.30
2023-05-02T11:33:32.449Z,18.20
2023-05-02T11:35:59.247Z,17.90
2023-05-02T11:38:34.656Z,17.70
2023-05-02T11:41:02.903Z,17.40
2023-05-02T11:43:31.791Z,17.30
2023-05-02T11:46:01.577Z,17.10
2023-05-02T11:48:28.940Z,17.00
2023-05-02T11:50:58.380Z,16.90
2023-05-02T11:53:26.672Z,16.80
2023-05-02T11:56:01.355Z,16.70
2023-05-02T11:58:30.133Z,16.60
2023-05-02T12:00:57.146Z,16.50
2023-05-02T12:03:32.070Z,16.50
2023-05-02T12:06:12.777Z,16.50
2023-05-02T12:08:40.718Z,16.40
2023-05-02T12:11:07.494Z,16.30
2023-05-02T12:13:34.332Z,16.10
2023-05-02T12:16:01.531Z,16.00
2023-05-02T12:18:28.536Z,16.00
2023-05-02T12:20:56.311Z,15.80
2023-05-02T12:23:26.203Z,15.60
2023-05-02T12:25:53.001Z,15.30
2023-05-02T12:28:20.493Z,15.20
2023-05-02T12:30:49.620Z,15.20
2023-05-02T12:33:17.325Z,15.10
2023-05-02T12:35:48.114Z,15.00
2023-05-02T12:38:23.679Z,15.00
2023-05-02T12:40:57.630Z,15.10
2023-05-02T12:43:24.491Z,15.30
2023-05-02T12:46:08.765Z,15.50
2023-05-02T12:48:35.424Z,15.80
2023-05-02T12:51:02.152Z,16.20
2023-05-02T12:53:40.577Z,16.50
2023-05-02T12:56:08.219Z,16.70
2023-05-02T12:58:46.523Z,17.00
2023-05-02T13:01:15.084Z,17.20
2023-05-02T13:03:43.325Z,17.50
2023-05-02T13:06:10.993Z,17.70
2023-05-02T13:08:37.922Z,17.80
2023-05-02T13:11:04.998Z,17.70
2023-05-02T13:13:32.618Z,17.50
2023-05-02T13:15:59.464Z,17.20
2023-05-02T13:18:28.028Z,17.30
2023-05-02T13:20:54.894Z,17.30
2023-05-02T13:23:21.750Z,17.30
2023-05-02T13:25:48.411Z,17.20
2023-05-02T13:28:15.357Z,17.20
2023-05-02T13:30:42.250Z,17.30
2023-05-02T13:33:09.310Z,17.20
2023-05-02T13:35:36.282Z,17.20
2023-05-02T13:38:03.520Z,17.10
2023-05-02T13:40:30.389Z,17.10
2023-05-02T13:42:57.466Z,17.10
2023-05-02T13:45:24.237Z,17.00
2023-05-02T13:47:51.033Z,17.00
2023-05-02T13:50:17.827Z,17.00
2023-05-02T13:52:46.996Z,16.90
2023-05-02T13:55:15.155Z,16.90
2023-05-02T13:57:41.808Z,17.00
2023-05-02T14:00:09.873Z,17.00
2023-05-02T14:02:37.363Z,17.00
2023-05-02T14:05:04.362Z,17.10
2023-05-02T14:07:31.002Z,17.10
2023-05-02T14:09:57.675Z,17.10
2023-05-02T14:12:24.393Z,17.20
2023-05-02T14:14:51.036Z,17.30
2023-05-02T14:17:17.664Z,17.30
2023-05-02T14:19:44.349Z,17.30
2023-05-02T14:22:10.993Z,17.30
2023-05-02T14:24:37.646Z,17.40
2023-05-02T14:27:04.763Z,17.40
2023-05-02T14:29:31.506Z,17.40
2023-05-02T14:31:58.262Z,17.40
2023-05-02T14:34:26.886Z,17.70
2023-05-02T14:36:53.692Z,18.00
2023-05-02T14:39:20.435Z,18.20
2023-05-02T14:41:47.391Z,18.10
2023-05-02T14:44:14.023Z,18.10
2023-05-02T14:46:41.352Z,18.00
2023-05-02T14:49:08.146Z,17.90
2023-05-02T14:51:37.024Z,17.90
2023-05-02T14:54:04.463Z,17.90
2023-05-02T14:56:31.197Z,17.90
2023-05-02T14:58:57.856Z,17.80
2023-05-02T15:01:24.934Z,17.60
2023-05-02T15:04:05.886Z,17.60
2023-05-02T15:06:35.628Z,17.50
2023-05-02T15:09:02.819Z,17.30
2023-05-02T15:11:29.486Z,17.40
2023-05-02T15:13:58.423Z,17.40
2023-05-02T15:16:27.378Z,17.50
2023-05-02T15:18:54.410Z,17.50
2023-05-02T15:21:21.423Z,17.50
2023-05-02T15:23:48.075Z,17.60
2023-05-02T15:26:14.809Z,17.70
2023-05-02T15:28:41.547Z,17.70
2023-05-02T15:31:08.376Z,17.90
2023-05-02T15:33:35.040Z,17.90
2023-05-02T15:36:01.703Z,17.90
2023-05-02T15:38:28.394Z,17.90
2023-05-02T15:40:55.928Z,17.70
2023-05-02T15:43:22.752Z,17.70
2023-05-02T15:45:59.494Z,17.60
2023-05-02T15:48:30.941Z,17.60
2023-05-02T15:50:57.769Z,17.60
2023-05-02T15:53:24.491Z,17.80
2023-05-02T15:55:52.097Z,17.90
2023-05-02T15:58:19.345Z,17.90
2023-05-02T16:00:49.700Z,18.00
2023-05-02T16:03:16.420Z,17.90
2023-05-02T16:05:43.141Z,17.80
2023-05-02T16:08:10.086Z,17.70
2023-05-02T16:10:39.162Z,17.60
2023-05-02T16:13:06.009Z,17.70
2023-05-02T16:15:32.671Z,17.70
2023-05-02T16:17:59.403Z,17.60
2023-05-02T16:20:26.684Z,17.60
2023-05-02T16:22:53.360Z,17.40
2023-05-02T16:25:20.252Z,17.40
2023-05-02T16:27:47.061Z,17.20
2023-05-02T16:30:13.965Z,17.10
2023-05-02T16:32:40.935Z,17.00
2023-05-02T16:35:10.672Z,16.80
2023-05-02T16:37:37.490Z,16.70
2023-05-02T16:40:05.960Z,16.70
2023-05-02T16:42:33.146Z,16.60
2023-05-02T16:44:59.874Z,16.60
2023-05-02T16:47:27.903Z,16.50
2023-05-02T16:49:56.064Z,16.40
2023-05-02T16:52:22.775Z,16.50
2023-05-02T16:54:49.590Z,16.50
2023-05-02T16:57:19.755Z,16.60
2023-05-02T16:59:51.668Z,16.60
2023-05-02T17:02:20.811Z,16.50
2023-05-02T17:04:49.375Z,16.40
2023-05-02T17:07:16.484Z,16.30
2023-05-02T17:09:44.356Z,16.30
2023-05-02T17:12:12.125Z,16.20
2023-05-02T17:14:41.013Z,16.10
2023-05-02T17:17:07.855Z,16.00
2023-05-02T17:19:34.909Z,15.90
2023-05-02T17:22:02.321Z,15.80
2023-05-02T17:24:29.948Z,15.70
2023-05-02T17:26:56.941Z,15.70
2023-05-02T17:29:23.733Z,15.60
2023-05-02T17:31:50.523Z,15.40
2023-05-02T17:34:17.276Z,15.30
2023-05-02T17:36:44.669Z,15.30
2023-05-02T17:39:13.030Z,15.20
2023-05-02T17:41:39.658Z,15.20
2023-05-02T17:44:06.396Z,15.10
2023-05-02T17:46:33.433Z,15.10
2023-05-02T17:49:00.852Z,15.00
2023-05-02T17:51:28.138Z,15.00
2023-05-02T17:53:54.912Z,15.00
2023-05-02T17:56:21.804Z,15.00
2023-05-02T17:58:48.564Z,14.90
2023-05-02T18:01:15.731Z,14.90
2023-05-02T18:03:43.382Z,15.00
2023-05-02T18:06:15.836Z,15.00
2023-05-02T18:08:43.249Z,14.90
2023-05-02T18:11:17.754Z,14.90
2023-05-02T18:13:44.608Z,14.90
2023-05-02T18:16:12.429Z,14.80
2023-05-02T18:18:39.608Z,14.80
2023-05-02T18:21:06.472Z,14.80
2023-05-02T18:23:33.807Z,14.70
2023-05-02T18:26:00.532Z,14.50
2023-05-02T18:28:27.352Z,14.50
2023-05-02T18:30:53.962Z,14.40
2023-05-02T18:33:20.880Z,14.40
2023-05-02T18:35:50.968Z,14.30
2023-05-02T18:38:18.153Z,14.20
2023-05-02T18:40:45.056Z,14.20
2023-05-02T18:43:11.769Z,14.10
2023-05-02T18:45:38.600Z,14.10
2023-05-02T18:48:05.565Z,14.00
2023-05-02T18:50:32.332Z,14.00
2023-05-02T18:52:58.980Z,14.00
2023-05-02T18:55:25.798Z,13.80
2023-05-02T18:57:52.464Z,13.80
2023-05-02T19:00:20.420Z,13.70
2023-05-02T19:02:47.587Z,13.70
2023-05-02T19:05:14.904Z,13.60
2023-05-02T19:07:41.644Z,13.50
2023-05-02T19:10:08.709Z,13.50
2023-05-02T19:12:35.377Z,13.60
2023-05-02T19:15:03.039Z,13.60
2023-05-02T19:17:30.072Z,13.60
2023-05-02T19:19:58.268Z,13.60
2023-05-02T19:22:27.470Z,13.60
2023-05-02T19:24:54.340Z,13.60
2023-05-02T19:27:21.266Z,13.50
2023-05-02T19:29:47.920Z,13.60
2023-05-02T19:32:15.024Z,13.50
2023-05-02T19:34:42.017Z,13.50
2023-05-02T19:37:08.824Z,13.40
2023-05-02T19:39:35.716Z,13.40
2023-05-02T19:42:03.120Z,13.40
2023-05-02T19:44:30.055Z,13.30
2023-05-02T19:46:56.879Z,13.30
2023-05-02T19:49:23.560Z,13.30
2023-05-02T19:51:50.451Z,13.30
2023-05-02T19:54:17.160Z,13.20
2023-05-02T19:56:44.293Z,13.10
2023-05-02T19:59:11.033Z,13.10
2023-05-02T20:01:37.837Z,13.10
2023-05-02T20:04:04.556Z,13.00
2023-05-02T20:06:32.232Z,12.90
2023-05-02T20:08:59.074Z,12.90
2023-05-02T20:11:26.220Z,12.90
2023-05-02T20:13:54.267Z,12.80
2023-05-02T20:16:21.148Z,12.80
2023-05-02T20:18:47.989Z,12.70
2023-05-02T20:21:14.906Z,12.70
2023-05-02T20:23:43.336Z,12.60
2023-05-02T20:26:10.316Z,12.60
2023-05-02T20:28:37.827Z,12.50
2023-05-02T20:31:04.730Z,12.50
2023-05-02T20:33:43.745Z,12.40
2023-05-02T20:36:12.803Z,12.40
2023-05-02T20:38:42.130Z,12.30
2023-05-02T20:41:12.443Z,12.30
2023-05-02T20:43:40.196Z,12.20
2023-05-02T20:46:11.878Z,12.20
2023-05-02T20:48:38.871Z,12.10
2023-05-02T20:51:05.663Z,12.00
2023-05-02T20:53:32.293Z,12.00
2023-05-02T20:55:58.927Z,12.00
2023-05-02T20:58:26.205Z,11.90
2023-05-02T21:00:53.980Z,11.90
2023-05-02T21:03:21.355Z,11.90
2023-05-02T21:05:55.938Z,11.90
2023-05-02T21:08:23.089Z,11.80
2023-05-02T21:10:49.847Z,11.80
2023-05-02T21:13:16.555Z,11.80
2023-05-02T21:15:43.443Z,11.70
2023-05-02T21:18:10.203Z,11.70
2023-05-02T21:20:38.158Z,11.70
2023-05-02T21:23:04.907Z,11.70
2023-05-02T21:25:31.606Z,11.70
2023-05-02T21:27:58.274Z,11.70
2023-05-02T21:30:24.994Z,11.70
2023-05-02T21:32:51.747Z,11.60
2023-05-02T21:35:18.438Z,11.70
2023-05-02T21:37:45.221Z,11.60
2023-05-02T21:40:12.462Z,11.60
2023-05-02T21:42:39.257Z,11.60
2023-05-02T21:45:06.859Z,11.50
2023-05-02T21:47:33.642Z,11.50
2023-05-02T21:50:00.704Z,11.50
2023-05-02T21:52:28.103Z,11.40
2023-05-02T21:54:54.767Z,11.50
2023-05-02T21:57:21.413Z,11.40
2023-05-02T21:59:48.125Z,11.40
2023-05-02T22:02:14.983Z,11.40
2023-05-02T22:04:41.775Z,11.40
2023-05-02T22:07:08.514Z,11.30
2023-05-02T22:09:35.244Z,11.30
2023-05-02T22:12:02.929Z,11.30
2023-05-02T22:14:37.590Z,11.20
2023-05-02T22:17:11.219Z,11.20
2023-05-02T22:19:39.207Z,11.20
2023-05-02T22:22:06.536Z,11.10
2023-05-02T22:24:33.585Z,11.10
2023-05-02T22:27:00.222Z,11.10
2023-05-02T22:29:26.963Z,11.10
2023-05-02T22:31:53.628Z,11.10
2023-05-02T22:34:20.365Z,11.00
2023-05-02T22:36:47.071Z,11.10
2023-05-02T22:39:15.650Z,11.00
2023-05-02T22:41:43.185Z,11.00
2023-05-02T22:44:11.037Z,11.00
2023-05-02T22:46:38.619Z,11.00
2023-05-02T22:49:07.629Z,11.00
2023-05-02T22:51:34.315Z,11.00
2023-05-02T22:54:03.067Z,10.90
2023-05-02T22:56:29.706Z,11.00
2023-05-02T22:58:56.462Z,10.90
2023-05-02T23:01:23.139Z,10.90
2023-05-02T23:03:50.079Z,10.80
2023-05-02T23:06:17.160Z,10.80
2023-05-02T23:08:43.913Z,10.80
2023-05-02T23:11:10.633Z,10.70
2023-05-02T23:13:37.344Z,10.70
2023-05-02T23:16:04.735Z,10.70
2023-05-02T23:18:31.619Z,10.60
2023-05-02T23:20:58.260Z,10.60
2023-05-02T23:23:24.920Z,10.60
2023-05-02T23:25:51.630Z,10.50
2023-05-02T23:28:18.247Z,10.50
2023-05-02T23:30:45.296Z,10.50
2023-05-02T23:33:12.169Z,10.40
2023-05-02T23:35:38.897Z,10.40
2023-05-02T23:38:07.719Z,10.40
2023-05-02T23:40:34.715Z,10.40
2023-05-02T23:43:01.639Z,10.50
2023-05-02T23:45:28.316Z,10.40
2023-05-02T23:47:55.711Z,10.40
2023-05-02T23:50:22.462Z,10.40
2023-05-02T23:52:49.126Z,10.40
2023-05-02T23:55:15.850Z,10.40
2023-05-02T23:57:42.627Z,10.40
